sensor_id;sensor_type;location;lat;lon;timestamp;temperature;humidity
2749;DHT22;1382;52.142;11.618;2022-12-20T00:00:52;9.40;55.90
2749;DHT22;1382;52.142;11.618;2022-12-20T00:03:18;9.30;56.00
2749;DHT22;1382;52.142;11.618;2022-12-20T00:05:46;9.30;56.30
2749;DHT22;1382;52.142;11.618;2022-12-20T00:08:13;9.30;56.40
2749;DHT22;1382;52.142;11.618;2022-12-20T00:10:43;9.30;56.60
2749;DHT22;1382;52.142;11.618;2022-12-20T00:13:11;9.30;56.70
2749;DHT22;1382;52.142;11.618;2022-12-20T00:15:38;9.30;56.60
2749;DHT22;1382;52.142;11.618;2022-12-20T00:18:06;9.30;56.60
2749;DHT22;1382;52.142;11.618;2022-12-20T00:20:33;9.30;56.60
2749;DHT22;1382;52.142;11.618;2022-12-20T00:23:00;9.30;56.60
2749;DHT22;1382;52.142;11.618;2022-12-20T00:25:27;9.30;56.50
2749;DHT22;1382;52.142;11.618;2022-12-20T00:27:53;9.30;56.40
2749;DHT22;1382;52.142;11.618;2022-12-20T00:30:20;9.30;56.30
2749;DHT22;1382;52.142;11.618;2022-12-20T00:32:47;9.30;56.50
2749;DHT22;1382;52.142;11.618;2022-12-20T00:35:15;9.40;57.00
2749;DHT22;1382;52.142;11.618;2022-12-20T00:37:42;9.30;57.20
2749;DHT22;1382;52.142;11.618;2022-12-20T00:40:09;9.30;57.00
2749;DHT22;1382;52.142;11.618;2022-12-20T00:42:36;9.20;57.00
2749;DHT22;1382;52.142;11.618;2022-12-20T00:45:03;9.30;56.70
2749;DHT22;1382;52.142;11.618;2022-12-20T00:47:29;9.30;56.90
2749;DHT22;1382;52.142;11.618;2022-12-20T00:49:56;9.20;56.80
2749;DHT22;1382;52.142;11.618;2022-12-20T00:52:24;9.30;56.70
2749;DHT22;1382;52.142;11.618;2022-12-20T00:54:51;9.40;56.80
2749;DHT22;1382;52.142;11.618;2022-12-20T00:57:18;9.30;56.80
2749;DHT22;1382;52.142;11.618;2022-12-20T00:59:45;9.30;57.00
2749;DHT22;1382;52.142;11.618;2022-12-20T01:02:11;9.30;56.90
2749;DHT22;1382;52.142;11.618;2022-12-20T01:04:38;9.30;56.90
2749;DHT22;1382;52.142;11.618;2022-12-20T01:07:05;9.30;56.60
2749;DHT22;1382;52.142;11.618;2022-12-20T01:09:33;9.30;56.70
2749;DHT22;1382;52.142;11.618;2022-12-20T01:12:00;9.20;56.70
2749;DHT22;1382;52.142;11.618;2022-12-20T01:14:27;9.40;56.80
2749;DHT22;1382;52.142;11.618;2022-12-20T01:16:54;9.20;56.90
2749;DHT22;1382;52.142;11.618;2022-12-20T01:19:20;9.20;57.00
2749;DHT22;1382;52.142;11.618;2022-12-20T01:21:47;9.30;57.20
2749;DHT22;1382;52.142;11.618;2022-12-20T01:24:16;9.20;57.00
2749;DHT22;1382;52.142;11.618;2022-12-20T01:26:45;9.30;57.10
2749;DHT22;1382;52.142;11.618;2022-12-20T01:29:12;9.20;57.40
2749;DHT22;1382;52.142;11.618;2022-12-20T01:31:40;9.30;57.30
2749;DHT22;1382;52.142;11.618;2022-12-20T01:34:07;9.30;57.70
2749;DHT22;1382;52.142;11.618;2022-12-20T01:36:35;9.30;57.60
2749;DHT22;1382;52.142;11.618;2022-12-20T01:39:04;9.30;57.90
2749;DHT22;1382;52.142;11.618;2022-12-20T01:41:32;9.30;58.00
2749;DHT22;1382;52.142;11.618;2022-12-20T01:44:02;9.30;57.70
2749;DHT22;1382;52.142;11.618;2022-12-20T01:46:31;9.30;57.40
2749;DHT22;1382;52.142;11.618;2022-12-20T01:49:03;9.40;57.50
2749;DHT22;1382;52.142;11.618;2022-12-20T01:51:35;9.30;57.10
2749;DHT22;1382;52.142;11.618;2022-12-20T01:54:06;9.30;56.90
2749;DHT22;1382;52.142;11.618;2022-12-20T01:56:35;9.30;57.00
2749;DHT22;1382;52.142;11.618;2022-12-20T01:59:04;9.30;56.90
2749;DHT22;1382;52.142;11.618;2022-12-20T02:01:32;9.30;56.70
2749;DHT22;1382;52.142;11.618;2022-12-20T02:04:00;9.30;56.70
2749;DHT22;1382;52.142;11.618;2022-12-20T02:06:26;9.30;56.70
2749;DHT22;1382;52.142;11.618;2022-12-20T02:08:57;9.30;56.80
2749;DHT22;1382;52.142;11.618;2022-12-20T02:14:35;9.40;56.60
2749;DHT22;1382;52.142;11.618;2022-12-20T02:17:13;9.40;56.70
2749;DHT22;1382;52.142;11.618;2022-12-20T02:22:48;9.50;57.10
2749;DHT22;1382;52.142;11.618;2022-12-20T02:25:36;9.40;57.00
2749;DHT22;1382;52.142;11.618;2022-12-20T02:28:14;9.50;57.00
2749;DHT22;1382;52.142;11.618;2022-12-20T02:30:53;9.40;56.90
2749;DHT22;1382;52.142;11.618;2022-12-20T02:33:24;9.40;56.80
2749;DHT22;1382;52.142;11.618;2022-12-20T02:35:52;9.40;56.70
2749;DHT22;1382;52.142;11.618;2022-12-20T02:38:26;9.40;56.60
2749;DHT22;1382;52.142;11.618;2022-12-20T02:40:57;9.40;56.60
2749;DHT22;1382;52.142;11.618;2022-12-20T02:43:26;9.40;56.60
2749;DHT22;1382;52.142;11.618;2022-12-20T02:45:57;9.40;56.60
2749;DHT22;1382;52.142;11.618;2022-12-20T02:48:27;9.50;56.60
2749;DHT22;1382;52.142;11.618;2022-12-20T02:50:57;9.50;56.70
2749;DHT22;1382;52.142;11.618;2022-12-20T02:53:25;9.60;56.60
2749;DHT22;1382;52.142;11.618;2022-12-20T02:55:56;9.50;56.50
2749;DHT22;1382;52.142;11.618;2022-12-20T02:58:28;9.50;56.70
2749;DHT22;1382;52.142;11.618;2022-12-20T03:01:01;9.50;56.70
2749;DHT22;1382;52.142;11.618;2022-12-20T03:03:30;9.50;56.70
2749;DHT22;1382;52.142;11.618;2022-12-20T03:05:58;9.50;56.70
2749;DHT22;1382;52.142;11.618;2022-12-20T03:08:25;9.40;56.30
2749;DHT22;1382;52.142;11.618;2022-12-20T03:10:53;9.40;56.40
2749;DHT22;1382;52.142;11.618;2022-12-20T03:13:20;9.40;56.50
2749;DHT22;1382;52.142;11.618;2022-12-20T03:15:47;9.40;56.40
2749;DHT22;1382;52.142;11.618;2022-12-20T03:18:15;9.50;56.40
2749;DHT22;1382;52.142;11.618;2022-12-20T03:20:42;9.40;56.50
2749;DHT22;1382;52.142;11.618;2022-12-20T03:23:09;9.40;56.40
2749;DHT22;1382;52.142;11.618;2022-12-20T03:25:36;9.40;56.60
2749;DHT22;1382;52.142;11.618;2022-12-20T03:28:03;9.40;56.60
2749;DHT22;1382;52.142;11.618;2022-12-20T03:30:30;9.40;56.50
2749;DHT22;1382;52.142;11.618;2022-12-20T03:32:57;9.40;56.60
2749;DHT22;1382;52.142;11.618;2022-12-20T03:35:25;9.40;56.70
2749;DHT22;1382;52.142;11.618;2022-12-20T03:37:52;9.40;56.60
2749;DHT22;1382;52.142;11.618;2022-12-20T03:40:19;9.40;56.50
2749;DHT22;1382;52.142;11.618;2022-12-20T03:42:45;9.50;56.70
2749;DHT22;1382;52.142;11.618;2022-12-20T03:45:12;9.40;56.50
2749;DHT22;1382;52.142;11.618;2022-12-20T03:47:39;9.60;56.60
2749;DHT22;1382;52.142;11.618;2022-12-20T03:50:07;9.60;56.60
2749;DHT22;1382;52.142;11.618;2022-12-20T03:52:35;9.40;56.60
2749;DHT22;1382;52.142;11.618;2022-12-20T03:55:02;9.40;56.70
2749;DHT22;1382;52.142;11.618;2022-12-20T03:57:29;9.40;56.70
2749;DHT22;1382;52.142;11.618;2022-12-20T03:59:56;9.40;56.70
2749;DHT22;1382;52.142;11.618;2022-12-20T04:02:23;9.40;56.60
2749;DHT22;1382;52.142;11.618;2022-12-20T04:04:50;9.40;56.60
2749;DHT22;1382;52.142;11.618;2022-12-20T04:07:17;9.40;56.60
2749;DHT22;1382;52.142;11.618;2022-12-20T04:09:45;9.40;56.70
2749;DHT22;1382;52.142;11.618;2022-12-20T04:12:11;9.40;56.90
2749;DHT22;1382;52.142;11.618;2022-12-20T04:14:38;9.30;57.00
2749;DHT22;1382;52.142;11.618;2022-12-20T04:17:05;9.40;57.10
2749;DHT22;1382;52.142;11.618;2022-12-20T04:19:32;9.40;57.00
2749;DHT22;1382;52.142;11.618;2022-12-20T04:21:59;9.40;57.00
2749;DHT22;1382;52.142;11.618;2022-12-20T04:24:30;9.40;57.00
2749;DHT22;1382;52.142;11.618;2022-12-20T04:26:59;9.40;57.30
2749;DHT22;1382;52.142;11.618;2022-12-20T04:29:26;9.40;57.60
2749;DHT22;1382;52.142;11.618;2022-12-20T04:31:53;9.40;57.40
2749;DHT22;1382;52.142;11.618;2022-12-20T04:34:20;9.40;57.40
2749;DHT22;1382;52.142;11.618;2022-12-20T04:36:47;9.40;57.60
2749;DHT22;1382;52.142;11.618;2022-12-20T04:39:13;9.50;57.80
2749;DHT22;1382;52.142;11.618;2022-12-20T04:41:40;9.50;57.80
2749;DHT22;1382;52.142;11.618;2022-12-20T04:44:08;9.50;57.60
2749;DHT22;1382;52.142;11.618;2022-12-20T04:46:35;9.50;57.80
2749;DHT22;1382;52.142;11.618;2022-12-20T04:49:02;9.60;57.70
2749;DHT22;1382;52.142;11.618;2022-12-20T04:51:29;9.60;57.60
2749;DHT22;1382;52.142;11.618;2022-12-20T04:53:55;9.70;57.60
2749;DHT22;1382;52.142;11.618;2022-12-20T04:56:24;9.60;57.90
2749;DHT22;1382;52.142;11.618;2022-12-20T04:58:53;9.60;57.60
2749;DHT22;1382;52.142;11.618;2022-12-20T05:01:22;9.60;57.60
2749;DHT22;1382;52.142;11.618;2022-12-20T05:03:49;9.60;57.40
2749;DHT22;1382;52.142;11.618;2022-12-20T05:06:16;9.60;57.40
2749;DHT22;1382;52.142;11.618;2022-12-20T05:08:43;9.60;57.70
2749;DHT22;1382;52.142;11.618;2022-12-20T05:11:10;9.70;57.80
2749;DHT22;1382;52.142;11.618;2022-12-20T05:13:37;9.60;57.40
2749;DHT22;1382;52.142;11.618;2022-12-20T05:16:05;9.70;57.20
2749;DHT22;1382;52.142;11.618;2022-12-20T05:18:33;9.70;57.20
2749;DHT22;1382;52.142;11.618;2022-12-20T05:21:02;9.70;57.00
2749;DHT22;1382;52.142;11.618;2022-12-20T05:23:29;9.70;57.20
2749;DHT22;1382;52.142;11.618;2022-12-20T05:25:56;9.70;57.00
2749;DHT22;1382;52.142;11.618;2022-12-20T05:28:23;9.80;57.20
2749;DHT22;1382;52.142;11.618;2022-12-20T05:30:49;9.70;57.00
2749;DHT22;1382;52.142;11.618;2022-12-20T05:33:16;9.70;57.00
2749;DHT22;1382;52.142;11.618;2022-12-20T05:35:44;9.70;57.40
2749;DHT22;1382;52.142;11.618;2022-12-20T05:38:11;9.80;57.30
2749;DHT22;1382;52.142;11.618;2022-12-20T05:40:38;9.70;57.40
2749;DHT22;1382;52.142;11.618;2022-12-20T05:43:06;9.80;57.40
2749;DHT22;1382;52.142;11.618;2022-12-20T05:45:33;9.80;57.50
2749;DHT22;1382;52.142;11.618;2022-12-20T05:48:00;10.00;56.90
2749;DHT22;1382;52.142;11.618;2022-12-20T05:50:27;10.00;56.50
2749;DHT22;1382;52.142;11.618;2022-12-20T05:52:55;9.80;57.10
2749;DHT22;1382;52.142;11.618;2022-12-20T05:55:22;9.80;57.20
2749;DHT22;1382;52.142;11.618;2022-12-20T05:57:51;9.80;57.20
2749;DHT22;1382;52.142;11.618;2022-12-20T06:00:18;9.80;57.40
2749;DHT22;1382;52.142;11.618;2022-12-20T06:02:45;9.90;57.80
2749;DHT22;1382;52.142;11.618;2022-12-20T06:05:12;9.90;57.70
2749;DHT22;1382;52.142;11.618;2022-12-20T06:07:39;9.90;57.90
2749;DHT22;1382;52.142;11.618;2022-12-20T06:10:09;10.10;57.30
2749;DHT22;1382;52.142;11.618;2022-12-20T06:12:36;10.00;57.60
2749;DHT22;1382;52.142;11.618;2022-12-20T06:15:03;10.00;57.70
2749;DHT22;1382;52.142;11.618;2022-12-20T06:17:30;10.00;57.70
2749;DHT22;1382;52.142;11.618;2022-12-20T06:19:57;10.20;58.10
2749;DHT22;1382;52.142;11.618;2022-12-20T06:22:24;10.00;57.90
2749;DHT22;1382;52.142;11.618;2022-12-20T06:24:51;10.10;58.30
2749;DHT22;1382;52.142;11.618;2022-12-20T06:27:19;10.10;58.50
2749;DHT22;1382;52.142;11.618;2022-12-20T06:29:46;10.20;58.60
2749;DHT22;1382;52.142;11.618;2022-12-20T06:32:13;10.20;59.00
2749;DHT22;1382;52.142;11.618;2022-12-20T06:34:40;10.20;59.00
2749;DHT22;1382;52.142;11.618;2022-12-20T06:37:07;10.20;58.60
2749;DHT22;1382;52.142;11.618;2022-12-20T06:39:33;10.20;58.50
2749;DHT22;1382;52.142;11.618;2022-12-20T06:42:14;10.40;58.80
2749;DHT22;1382;52.142;11.618;2022-12-20T06:44:43;10.40;58.60
2749;DHT22;1382;52.142;11.618;2022-12-20T06:47:09;10.30;58.30
2749;DHT22;1382;52.142;11.618;2022-12-20T06:49:36;10.30;57.80
2749;DHT22;1382;52.142;11.618;2022-12-20T06:52:03;10.40;57.60
2749;DHT22;1382;52.142;11.618;2022-12-20T06:54:30;10.40;57.60
2749;DHT22;1382;52.142;11.618;2022-12-20T06:56:57;10.50;57.70
2749;DHT22;1382;52.142;11.618;2022-12-20T06:59:24;10.60;57.80
2749;DHT22;1382;52.142;11.618;2022-12-20T07:01:53;10.50;57.40
2749;DHT22;1382;52.142;11.618;2022-12-20T07:04:20;10.50;57.30
2749;DHT22;1382;52.142;11.618;2022-12-20T07:06:47;10.50;57.20
2749;DHT22;1382;52.142;11.618;2022-12-20T07:09:14;10.50;57.20
2749;DHT22;1382;52.142;11.618;2022-12-20T07:11:41;10.70;57.40
2749;DHT22;1382;52.142;11.618;2022-12-20T07:14:08;10.60;57.20
2749;DHT22;1382;52.142;11.618;2022-12-20T07:16:35;10.60;57.40
2749;DHT22;1382;52.142;11.618;2022-12-20T07:19:03;10.60;57.40
2749;DHT22;1382;52.142;11.618;2022-12-20T07:21:30;10.70;57.80
2749;DHT22;1382;52.142;11.618;2022-12-20T07:23:57;10.80;57.90
2749;DHT22;1382;52.142;11.618;2022-12-20T07:26:24;10.70;57.70
2749;DHT22;1382;52.142;11.618;2022-12-20T07:28:50;10.70;57.40
2749;DHT22;1382;52.142;11.618;2022-12-20T07:31:17;10.80;57.60
2749;DHT22;1382;52.142;11.618;2022-12-20T07:33:44;10.70;57.30
2749;DHT22;1382;52.142;11.618;2022-12-20T07:36:13;10.70;56.90
2749;DHT22;1382;52.142;11.618;2022-12-20T07:38:40;10.70;56.50
2749;DHT22;1382;52.142;11.618;2022-12-20T07:41:07;10.70;56.20
2749;DHT22;1382;52.142;11.618;2022-12-20T07:43:35;10.60;56.30
2749;DHT22;1382;52.142;11.618;2022-12-20T07:46:03;10.60;56.20
2749;DHT22;1382;52.142;11.618;2022-12-20T07:48:31;10.60;56.10
2749;DHT22;1382;52.142;11.618;2022-12-20T07:51:00;10.60;56.20
2749;DHT22;1382;52.142;11.618;2022-12-20T07:53:30;10.80;56.30
2749;DHT22;1382;52.142;11.618;2022-12-20T07:56:00;10.60;56.30
2749;DHT22;1382;52.142;11.618;2022-12-20T07:58:29;10.60;56.10
2749;DHT22;1382;52.142;11.618;2022-12-20T08:00:59;10.60;56.00
2749;DHT22;1382;52.142;11.618;2022-12-20T08:03:31;10.50;56.30
2749;DHT22;1382;52.142;11.618;2022-12-20T08:05:59;10.60;56.50
2749;DHT22;1382;52.142;11.618;2022-12-20T08:08:31;10.60;56.70
2749;DHT22;1382;52.142;11.618;2022-12-20T08:10:58;10.60;56.50
2749;DHT22;1382;52.142;11.618;2022-12-20T08:13:25;10.70;56.50
2749;DHT22;1382;52.142;11.618;2022-12-20T08:15:52;10.50;56.30
2749;DHT22;1382;52.142;11.618;2022-12-20T08:18:19;10.60;56.40
2749;DHT22;1382;52.142;11.618;2022-12-20T08:20:46;10.50;56.30
2749;DHT22;1382;52.142;11.618;2022-12-20T08:23:13;10.60;56.40
2749;DHT22;1382;52.142;11.618;2022-12-20T08:25:41;10.60;56.40
2749;DHT22;1382;52.142;11.618;2022-12-20T08:28:08;10.60;56.50
2749;DHT22;1382;52.142;11.618;2022-12-20T08:30:35;10.60;56.60
2749;DHT22;1382;52.142;11.618;2022-12-20T08:33:02;10.60;56.50
2749;DHT22;1382;52.142;11.618;2022-12-20T08:35:29;10.60;56.40
2749;DHT22;1382;52.142;11.618;2022-12-20T08:37:56;10.60;56.60
2749;DHT22;1382;52.142;11.618;2022-12-20T08:40:23;10.60;56.50
2749;DHT22;1382;52.142;11.618;2022-12-20T08:42:51;10.60;57.30
2749;DHT22;1382;52.142;11.618;2022-12-20T08:45:18;10.60;56.60
2749;DHT22;1382;52.142;11.618;2022-12-20T08:47:45;10.60;56.50
2749;DHT22;1382;52.142;11.618;2022-12-20T08:50:12;10.60;56.70
2749;DHT22;1382;52.142;11.618;2022-12-20T08:52:38;10.70;56.60
2749;DHT22;1382;52.142;11.618;2022-12-20T08:55:06;10.60;56.70
2749;DHT22;1382;52.142;11.618;2022-12-20T08:57:33;10.70;56.60
2749;DHT22;1382;52.142;11.618;2022-12-20T09:00:01;10.70;56.70
2749;DHT22;1382;52.142;11.618;2022-12-20T09:02:28;10.70;56.90
2749;DHT22;1382;52.142;11.618;2022-12-20T09:04:55;10.80;56.80
2749;DHT22;1382;52.142;11.618;2022-12-20T09:07:22;10.70;56.70
2749;DHT22;1382;52.142;11.618;2022-12-20T09:09:49;10.70;56.50
2749;DHT22;1382;52.142;11.618;2022-12-20T09:12:16;10.70;56.50
2749;DHT22;1382;52.142;11.618;2022-12-20T09:14:42;10.70;56.30
2749;DHT22;1382;52.142;11.618;2022-12-20T09:17:11;10.80;56.30
2749;DHT22;1382;52.142;11.618;2022-12-20T09:19:37;10.70;56.40
2749;DHT22;1382;52.142;11.618;2022-12-20T09:22:04;10.90;56.60
2749;DHT22;1382;52.142;11.618;2022-12-20T09:24:31;10.70;56.40
2749;DHT22;1382;52.142;11.618;2022-12-20T09:26:58;10.70;56.60
2749;DHT22;1382;52.142;11.618;2022-12-20T09:29:24;10.70;56.30
2749;DHT22;1382;52.142;11.618;2022-12-20T09:32:00;10.70;56.00
2749;DHT22;1382;52.142;11.618;2022-12-20T09:34:28;10.70;56.10
2749;DHT22;1382;52.142;11.618;2022-12-20T09:36:55;10.70;56.30
2749;DHT22;1382;52.142;11.618;2022-12-20T09:39:22;10.70;56.40
2749;DHT22;1382;52.142;11.618;2022-12-20T09:41:49;10.70;56.40
2749;DHT22;1382;52.142;11.618;2022-12-20T09:44:19;10.80;56.30
2749;DHT22;1382;52.142;11.618;2022-12-20T09:46:52;10.80;56.50
2749;DHT22;1382;52.142;11.618;2022-12-20T09:49:29;10.70;56.30
2749;DHT22;1382;52.142;11.618;2022-12-20T09:52:23;10.70;56.40
2749;DHT22;1382;52.142;11.618;2022-12-20T09:54:57;10.70;56.30
2749;DHT22;1382;52.142;11.618;2022-12-20T09:57:31;10.70;56.40
2749;DHT22;1382;52.142;11.618;2022-12-20T09:59:59;10.70;56.40
2749;DHT22;1382;52.142;11.618;2022-12-20T10:02:28;10.70;56.10
2749;DHT22;1382;52.142;11.618;2022-12-20T10:05:21;10.70;56.40
2749;DHT22;1382;52.142;11.618;2022-12-20T10:07:54;10.70;56.20
2749;DHT22;1382;52.142;11.618;2022-12-20T10:10:45;10.60;56.20
2749;DHT22;1382;52.142;11.618;2022-12-20T10:13:24;10.70;56.40
2749;DHT22;1382;52.142;11.618;2022-12-20T10:16:14;10.80;56.60
2749;DHT22;1382;52.142;11.618;2022-12-20T10:18:53;10.60;56.40
2749;DHT22;1382;52.142;11.618;2022-12-20T10:21:35;10.70;56.50
2749;DHT22;1382;52.142;11.618;2022-12-20T10:24:08;10.80;56.90
2749;DHT22;1382;52.142;11.618;2022-12-20T10:26:35;10.70;56.40
2749;DHT22;1382;52.142;11.618;2022-12-20T10:29:02;10.60;56.40
2749;DHT22;1382;52.142;11.618;2022-12-20T10:31:29;10.70;56.50
2749;DHT22;1382;52.142;11.618;2022-12-20T10:33:56;10.60;56.40
2749;DHT22;1382;52.142;11.618;2022-12-20T10:36:24;10.70;56.70
2749;DHT22;1382;52.142;11.618;2022-12-20T10:38:55;10.70;56.60
2749;DHT22;1382;52.142;11.618;2022-12-20T10:41:23;10.70;56.70
2749;DHT22;1382;52.142;11.618;2022-12-20T10:43:54;10.70;56.60
2749;DHT22;1382;52.142;11.618;2022-12-20T10:46:22;10.60;56.50
2749;DHT22;1382;52.142;11.618;2022-12-20T10:49:21;10.70;56.70
2749;DHT22;1382;52.142;11.618;2022-12-20T10:51:51;10.70;56.70
2749;DHT22;1382;52.142;11.618;2022-12-20T10:54:22;10.70;56.60
2749;DHT22;1382;52.142;11.618;2022-12-20T10:56:54;10.70;56.70
2749;DHT22;1382;52.142;11.618;2022-12-20T10:59:28;10.70;56.70
2749;DHT22;1382;52.142;11.618;2022-12-20T11:01:55;10.70;56.90
2749;DHT22;1382;52.142;11.618;2022-12-20T11:04:26;10.70;56.80
2749;DHT22;1382;52.142;11.618;2022-12-20T11:06:54;10.70;56.90
2749;DHT22;1382;52.142;11.618;2022-12-20T11:09:25;10.70;56.60
2749;DHT22;1382;52.142;11.618;2022-12-20T11:12:01;10.80;56.90
2749;DHT22;1382;52.142;11.618;2022-12-20T11:14:29;10.70;56.90
2749;DHT22;1382;52.142;11.618;2022-12-20T11:17:17;10.70;56.80
2749;DHT22;1382;52.142;11.618;2022-12-20T11:19:57;10.70;56.70
2749;DHT22;1382;52.142;11.618;2022-12-20T11:22:34;10.70;56.90
2749;DHT22;1382;52.142;11.618;2022-12-20T11:25:19;10.70;56.90
2749;DHT22;1382;52.142;11.618;2022-12-20T11:27:57;10.80;57.00
2749;DHT22;1382;52.142;11.618;2022-12-20T11:30:29;10.70;57.00
2749;DHT22;1382;52.142;11.618;2022-12-20T11:33:22;10.90;57.20
2749;DHT22;1382;52.142;11.618;2022-12-20T11:35:58;10.80;57.00
2749;DHT22;1382;52.142;11.618;2022-12-20T11:38:36;10.80;57.00
2749;DHT22;1382;52.142;11.618;2022-12-20T11:41:14;10.80;57.00
2749;DHT22;1382;52.142;11.618;2022-12-20T11:43:59;11.00;57.10
2749;DHT22;1382;52.142;11.618;2022-12-20T11:46:57;10.90;57.10
2749;DHT22;1382;52.142;11.618;2022-12-20T11:50:08;10.80;57.00
2749;DHT22;1382;52.142;11.618;2022-12-20T11:52:42;10.90;57.10
2749;DHT22;1382;52.142;11.618;2022-12-20T11:55:18;10.80;57.00
2749;DHT22;1382;52.142;11.618;2022-12-20T11:57:54;10.80;56.90
2749;DHT22;1382;52.142;11.618;2022-12-20T12:00:54;10.90;57.10
2749;DHT22;1382;52.142;11.618;2022-12-20T12:03:27;10.90;56.80
2749;DHT22;1382;52.142;11.618;2022-12-20T12:05:58;10.80;56.70
2749;DHT22;1382;52.142;11.618;2022-12-20T12:08:30;10.90;56.90
2749;DHT22;1382;52.142;11.618;2022-12-20T12:11:05;10.90;56.70
2749;DHT22;1382;52.142;11.618;2022-12-20T12:13:56;10.90;56.80
2749;DHT22;1382;52.142;11.618;2022-12-20T12:16:26;11.00;57.00
2749;DHT22;1382;52.142;11.618;2022-12-20T12:18:53;10.90;56.90
2749;DHT22;1382;52.142;11.618;2022-12-20T12:21:23;11.00;56.90
2749;DHT22;1382;52.142;11.618;2022-12-20T12:23:59;10.90;56.90
2749;DHT22;1382;52.142;11.618;2022-12-20T12:26:29;10.90;56.80
2749;DHT22;1382;52.142;11.618;2022-12-20T12:29:00;10.90;56.60
2749;DHT22;1382;52.142;11.618;2022-12-20T12:31:31;10.90;56.80
2749;DHT22;1382;52.142;11.618;2022-12-20T12:34:09;11.10;57.00
2749;DHT22;1382;52.142;11.618;2022-12-20T12:36:54;10.90;56.90
2749;DHT22;1382;52.142;11.618;2022-12-20T12:39:57;11.00;57.00
2749;DHT22;1382;52.142;11.618;2022-12-20T12:42:47;10.90;57.00
2749;DHT22;1382;52.142;11.618;2022-12-20T12:45:25;11.00;57.10
2749;DHT22;1382;52.142;11.618;2022-12-20T12:47:55;10.90;57.00
2749;DHT22;1382;52.142;11.618;2022-12-20T12:50:26;10.90;56.90
2749;DHT22;1382;52.142;11.618;2022-12-20T12:52:55;10.90;57.00
2749;DHT22;1382;52.142;11.618;2022-12-20T12:55:38;11.00;57.10
2749;DHT22;1382;52.142;11.618;2022-12-20T12:58:29;11.00;57.10
2749;DHT22;1382;52.142;11.618;2022-12-20T13:00:59;11.00;56.70
2749;DHT22;1382;52.142;11.618;2022-12-20T13:06:53;11.00;56.90
2749;DHT22;1382;52.142;11.618;2022-12-20T13:09:35;11.00;57.00
2749;DHT22;1382;52.142;11.618;2022-12-20T13:15:46;10.90;56.90
2749;DHT22;1382;52.142;11.618;2022-12-20T13:18:27;10.90;56.90
2749;DHT22;1382;52.142;11.618;2022-12-20T13:21:16;10.90;57.10
2749;DHT22;1382;52.142;11.618;2022-12-20T13:23:43;10.90;57.10
2749;DHT22;1382;52.142;11.618;2022-12-20T13:29:23;10.90;57.30
2749;DHT22;1382;52.142;11.618;2022-12-20T13:31:51;11.00;57.20
2749;DHT22;1382;52.142;11.618;2022-12-20T13:34:42;10.90;57.20
2749;DHT22;1382;52.142;11.618;2022-12-20T13:37:26;11.00;57.30
2749;DHT22;1382;52.142;11.618;2022-12-20T13:39:53;11.00;57.30
2749;DHT22;1382;52.142;11.618;2022-12-20T13:42:31;11.00;57.00
2749;DHT22;1382;52.142;11.618;2022-12-20T13:45:01;11.00;56.90
2749;DHT22;1382;52.142;11.618;2022-12-20T13:47:43;11.00;56.80
2749;DHT22;1382;52.142;11.618;2022-12-20T13:50:30;11.00;56.90
2749;DHT22;1382;52.142;11.618;2022-12-20T13:52:57;11.00;56.70
2749;DHT22;1382;52.142;11.618;2022-12-20T13:55:31;11.00;56.90
2749;DHT22;1382;52.142;11.618;2022-12-20T13:58:04;11.00;57.40
2749;DHT22;1382;52.142;11.618;2022-12-20T14:00:31;11.00;56.90
2749;DHT22;1382;52.142;11.618;2022-12-20T14:02:59;11.00;56.80
2749;DHT22;1382;52.142;11.618;2022-12-20T14:05:33;11.00;56.70
2749;DHT22;1382;52.142;11.618;2022-12-20T14:08:02;11.00;56.70
2749;DHT22;1382;52.142;11.618;2022-12-20T14:10:31;11.00;56.80
2749;DHT22;1382;52.142;11.618;2022-12-20T14:12:58;11.00;56.80
2749;DHT22;1382;52.142;11.618;2022-12-20T14:15:28;11.00;56.70
2749;DHT22;1382;52.142;11.618;2022-12-20T14:17:55;11.00;57.30
2749;DHT22;1382;52.142;11.618;2022-12-20T14:20:27;11.00;56.70
2749;DHT22;1382;52.142;11.618;2022-12-20T14:23:00;11.00;56.70
2749;DHT22;1382;52.142;11.618;2022-12-20T14:25:35;11.10;56.90
2749;DHT22;1382;52.142;11.618;2022-12-20T14:28:03;11.00;56.60
2749;DHT22;1382;52.142;11.618;2022-12-20T14:30:33;11.00;56.50
2749;DHT22;1382;52.142;11.618;2022-12-20T14:33:00;11.00;56.60
2749;DHT22;1382;52.142;11.618;2022-12-20T14:35:27;11.00;56.50
2749;DHT22;1382;52.142;11.618;2022-12-20T14:37:58;11.00;56.40
2749;DHT22;1382;52.142;11.618;2022-12-20T14:40:26;11.00;56.50
2749;DHT22;1382;52.142;11.618;2022-12-20T14:42:53;11.00;56.60
2749;DHT22;1382;52.142;11.618;2022-12-20T14:45:23;11.00;56.50
2749;DHT22;1382;52.142;11.618;2022-12-20T14:47:58;11.20;56.60
2749;DHT22;1382;52.142;11.618;2022-12-20T14:50:30;11.00;56.50
2749;DHT22;1382;52.142;11.618;2022-12-20T14:52:59;11.00;56.30
2749;DHT22;1382;52.142;11.618;2022-12-20T14:55:31;11.00;56.50
2749;DHT22;1382;52.142;11.618;2022-12-20T14:57:58;11.00;56.60
2749;DHT22;1382;52.142;11.618;2022-12-20T15:00:27;10.90;56.40
2749;DHT22;1382;52.142;11.618;2022-12-20T15:03:00;11.00;56.60
2749;DHT22;1382;52.142;11.618;2022-12-20T15:05:45;11.00;56.40
2749;DHT22;1382;52.142;11.618;2022-12-20T15:08:15;11.00;56.40
2749;DHT22;1382;52.142;11.618;2022-12-20T15:10:47;10.90;56.30
2749;DHT22;1382;52.142;11.618;2022-12-20T15:13:17;10.90;56.20
2749;DHT22;1382;52.142;11.618;2022-12-20T15:15:44;10.90;56.30
2749;DHT22;1382;52.142;11.618;2022-12-20T15:18:12;10.90;56.30
2749;DHT22;1382;52.142;11.618;2022-12-20T15:20:40;10.90;56.30
2749;DHT22;1382;52.142;11.618;2022-12-20T15:23:13;10.90;56.30
2749;DHT22;1382;52.142;11.618;2022-12-20T15:25:41;10.90;56.40
2749;DHT22;1382;52.142;11.618;2022-12-20T15:28:13;10.90;56.40
2749;DHT22;1382;52.142;11.618;2022-12-20T15:30:40;10.90;56.40
2749;DHT22;1382;52.142;11.618;2022-12-20T15:33:14;10.80;56.20
2749;DHT22;1382;52.142;11.618;2022-12-20T15:35:42;10.90;56.20
2749;DHT22;1382;52.142;11.618;2022-12-20T15:38:14;10.90;56.30
2749;DHT22;1382;52.142;11.618;2022-12-20T15:40:41;10.90;56.40
2749;DHT22;1382;52.142;11.618;2022-12-20T15:43:11;10.80;56.30
2749;DHT22;1382;52.142;11.618;2022-12-20T15:45:39;10.80;56.30
2749;DHT22;1382;52.142;11.618;2022-12-20T15:48:11;10.80;56.30
2749;DHT22;1382;52.142;11.618;2022-12-20T15:50:39;10.80;56.30
2749;DHT22;1382;52.142;11.618;2022-12-20T15:53:09;10.80;56.20
2749;DHT22;1382;52.142;11.618;2022-12-20T15:55:39;10.80;56.30
2749;DHT22;1382;52.142;11.618;2022-12-20T15:58:07;10.80;56.30
2749;DHT22;1382;52.142;11.618;2022-12-20T16:00:36;10.80;56.30
2749;DHT22;1382;52.142;11.618;2022-12-20T16:03:04;10.70;56.20
2749;DHT22;1382;52.142;11.618;2022-12-20T16:05:31;10.70;56.20
2749;DHT22;1382;52.142;11.618;2022-12-20T16:07:58;10.70;56.10
2749;DHT22;1382;52.142;11.618;2022-12-20T16:10:25;10.70;56.20
2749;DHT22;1382;52.142;11.618;2022-12-20T16:12:53;10.70;56.10
2749;DHT22;1382;52.142;11.618;2022-12-20T16:15:22;10.70;56.10
2749;DHT22;1382;52.142;11.618;2022-12-20T16:17:48;10.70;56.20
2749;DHT22;1382;52.142;11.618;2022-12-20T16:20:15;10.70;56.10
2749;DHT22;1382;52.142;11.618;2022-12-20T16:22:42;10.80;56.30
2749;DHT22;1382;52.142;11.618;2022-12-20T16:25:22;10.70;56.20
2749;DHT22;1382;52.142;11.618;2022-12-20T16:27:49;10.70;56.20